Accueil
METAR-TAF:

METAR-TAF

Aéroports :

Aérodrome de Sanikiluaq

Sanikiluaq, Nunavut, Canada

latitude: 56-32N, longitude: 079-15W, altitude: 32 m

Observation

Le bulletin a été fait il y a 21 minutes, à 20:00 UTC
Vent 9 kt de est/nord-est
Température -1°C
Humidité 54%
Pression 1020 hPa
Visibilité: 24.1 km
Nuages fragmentés à une hauteur de 3000 ft

METAR: CYSK 222000Z 07009KT 15SM BKN030 M01/M09 A3012 RMK SC6 SLP204

Heure: 16:21 (20:21 UTC)


TAF: absent

Observations et prévisions météorologiques de plus de 4000 aéroports (messages METAR et TAF).

Les stations disponibles sont représentées par des disques jaunes et rouges sur la carte.

Passer la souris dessus pour voir le nom de la station.

Cliquer dessus pour voir les observations et prévisions météorologiques.

Pour changer de carte: cliquez sur les boutons verts avec une croix noire pour zoomer, sur le bouton vert avec un tiret pour effectuer un zoom arrière, ou sur les flèches vertes pour les cartes adjacentes.


METAR-TAF: